Hickory Point, Tennessee
Current Conditions -  °F | °C
As of 2:20 PM on Sunday 25 Jan 2015 (Local Time) from KCKV Reporting Station
Light Rain Light Rain  
Wind Chill: 39°   Ceiling: 2500
Heat Index: 46°   Visibility: 10mi
Dew Point: 41°   Wind: 16mph
Humidity: 83%   Direction: 230°SW
Pressure: 29.61"   Gusts: 24mph
Location:  36.4964°N, 87.234°W
Report Text: KCKV 252020Z AUTO 23014G21KT 10SM -RA SCT019 BKN025 OVC037 08/05 A2961 RMK AO2 RAB1957 P0000 T00780050 $
Loading
Personal Weather Stations






























Interactive Weather Map New forecast layout! Learn more

10-Day Weather Forecast

Advertisements
Track Severe Weather on mobile